Time;durP1;ratioP1;P1;durP2;ratioP2;P2;SDS_P1;SDS_P2;PMS_P1;PMS_P2;Temp;Humidity;BMP_temperature;BMP_pressure;BME280_temperature;BME280_humidity;BME280_pressure;Samples;Min_cycle;Max_cycle;Signal;HPM_P1;HPM_P2
2022/01/08 00:01:32;;;;;;;7.97;4.90;;;4.70;99.90;;;;;;5012640;28;20173;-85
2022/01/08 00:03:58;;;;;;;6.70;4.50;;;4.70;99.90;;;;;;5012538;28;20187;-85
2022/01/08 00:06:24;;;;;;;9.83;4.50;;;4.80;99.90;;;;;;5029072;28;20294;-86
2022/01/08 00:08:49;;;;;;;7.40;4.60;;;4.70;99.90;;;;;;5012599;28;20821;-85
2022/01/08 00:11:21;;;;;;;7.83;4.33;;;4.80;99.90;;;;;;5012626;28;20184;-85
2022/01/08 00:13:47;;;;;;;4.97;3.80;;;4.80;99.90;;;;;;5012480;28;20603;-86
2022/01/08 00:16:13;;;;;;;8.43;5.17;;;4.80;99.90;;;;;;5013274;28;20445;-85
2022/01/08 00:18:39;;;;;;;6.47;4.67;;;4.80;99.90;;;;;;5013492;28;20410;-86
2022/01/08 00:21:04;;;;;;;11.07;5.30;;;4.80;99.90;;;;;;5012087;28;20185;-85
2022/01/08 00:23:30;;;;;;;6.37;4.27;;;4.80;99.90;;;;;;5013604;28;20487;-85
2022/01/08 00:25:58;;;;;;;7.67;4.10;;;4.80;99.90;;;;;;5012271;28;20203;-85
2022/01/08 00:28:25;;;;;;;4.93;3.63;;;4.90;99.90;;;;;;5012051;28;20498;-85
2022/01/08 00:30:50;;;;;;;6.57;3.83;;;4.80;99.90;;;;;;5012403;28;20433;-84
2022/01/08 00:33:16;;;;;;;4.63;3.33;;;4.90;99.90;;;;;;5012030;28;20454;-85
2022/01/08 00:35:42;;;;;;;3.83;2.63;;;4.90;99.90;;;;;;5011927;28;20479;-85
2022/01/08 00:38:07;;;;;;;5.83;3.57;;;4.90;99.90;;;;;;5011810;28;20181;-85
2022/01/08 00:40:33;;;;;;;6.17;2.87;;;4.90;99.90;;;;;;5012140;28;20200;-85
2022/01/08 00:42:59;;;;;;;5.40;2.80;;;4.90;99.90;;;;;;5011692;28;20206;-85
2022/01/08 00:45:24;;;;;;;4.57;2.40;;;4.90;99.90;;;;;;5013155;28;20764;-85
2022/01/08 00:47:50;;;;;;;4.60;3.03;;;4.90;99.90;;;;;;5012131;28;20186;-85
2022/01/08 00:50:16;;;;;;;4.40;2.87;;;4.90;99.90;;;;;;5030683;28;20645;-85
2022/01/08 00:52:42;;;;;;;6.63;3.20;;;4.90;99.90;;;;;;5015855;28;20207;-86
2022/01/08 00:55:09;;;;;;;8.10;3.43;;;4.90;99.90;;;;;;5016060;28;20243;-87
2022/01/08 00:57:35;;;;;;;5.63;3.03;;;4.80;99.90;;;;;;5032294;28;20768;-85
2022/01/08 01:00:02;;;;;;;8.73;4.00;;;4.70;99.90;;;;;;5015596;28;20427;-85
2022/01/08 01:02:27;;;;;;;6.10;3.10;;;4.60;99.90;;;;;;5015730;28;20418;-85
2022/01/08 01:04:53;;;;;;;5.43;3.30;;;4.60;99.90;;;;;;5015375;28;20579;-85
2022/01/08 01:07:18;;;;;;;6.17;3.40;;;4.60;99.90;;;;;;5015680;28;20684;-85
2022/01/08 01:09:44;;;;;;;3.80;2.67;;;4.60;99.90;;;;;;5015576;28;20657;-86
2022/01/08 01:12:09;;;;;;;4.70;2.53;;;4.60;99.90;;;;;;5015482;28;20300;-85
2022/01/08 01:14:35;;;;;;;5.00;2.73;;;4.60;99.90;;;;;;5015539;28;20238;-85
2022/01/08 01:17:01;;;;;;;3.93;2.70;;;4.60;99.90;;;;;;5015577;28;20536;-85
2022/01/08 01:19:26;;;;;;;4.33;2.80;;;4.50;99.90;;;;;;5031579;28;20680;-85
2022/01/08 01:21:54;;;;;;;4.83;2.60;;;4.50;99.90;;;;;;5015128;28;20606;-85
2022/01/08 01:24:23;;;;;;;7.53;3.03;;;4.50;99.90;;;;;;5015563;28;20241;-85
2022/01/08 01:29:41;;;;;;;6.83;3.47;;;4.50;99.90;;;;;;5016896;28;20405;-85
2022/01/08 01:48:16;;;;;;;5.07;3.60;;;4.00;99.90;;;;;;5016341;28;20404;-85
2022/01/08 01:50:42;;;;;;;7.73;3.20;;;3.80;99.90;;;;;;5014456;28;21138;-85
2022/01/08 01:53:07;;;;;;;3.97;2.77;;;3.80;99.90;;;;;;5030856;28;20205;-85
2022/01/08 01:55:34;;;;;;;5.07;2.77;;;3.70;99.90;;;;;;5014189;28;20227;-85
2022/01/08 01:58:00;;;;;;;6.17;3.03;;;3.70;99.90;;;;;;5014530;28;20181;-85
2022/01/08 02:00:25;;;;;;;4.33;2.60;;;3.70;99.90;;;;;;5014939;28;20919;-85
2022/01/08 02:02:51;;;;;;;5.37;2.57;;;3.70;99.90;;;;;;5013746;28;20413;-85
2022/01/08 02:05:17;;;;;;;5.43;3.93;;;3.70;99.90;;;;;;5013963;28;20296;-85
2022/01/08 02:07:42;;;;;;;3.50;2.30;;;3.60;99.90;;;;;;5030896;28;20181;-85
2022/01/08 02:10:08;;;;;;;3.63;2.40;;;3.50;99.90;;;;;;5014365;28;20216;-85
2022/01/08 02:12:34;;;;;;;5.57;2.77;;;3.40;99.90;;;;;;5014080;28;20212;-85
2022/01/08 02:15:00;;;;;;;5.33;2.43;;;3.40;99.90;;;;;;5015407;28;20439;-85
2022/01/08 02:17:26;;;;;;;4.27;2.80;;;3.40;99.90;;;;;;5014351;28;20181;-85
2022/01/08 02:19:53;;;;;;;12.87;10.07;;;3.40;99.90;;;;;;5015152;28;20466;-84
2022/01/08 02:22:20;;;;;;;20.03;16.80;;;3.40;99.90;;;;;;5014206;28;20188;-85
2022/01/08 02:24:47;;;;;;;16.30;14.70;;;3.40;99.90;;;;;;5013986;28;20424;-85
2022/01/08 02:27:14;;;;;;;13.90;12.50;;;3.40;99.90;;;;;;5013762;28;20507;-85
2022/01/08 02:29:40;;;;;;;14.07;8.73;;;3.30;99.90;;;;;;5013643;28;20792;-86
2022/01/08 02:32:09;;;;;;;8.27;6.53;;;3.30;99.90;;;;;;5030112;28;20467;-85
2022/01/08 02:34:37;;;;;;;8.03;4.83;;;3.20;99.90;;;;;;5013629;28;20177;-86
2022/01/08 02:37:04;;;;;;;6.30;4.13;;;3.20;99.90;;;;;;5013365;28;20424;-85
2022/01/08 02:39:34;;;;;;;7.53;3.27;;;3.20;99.90;;;;;;5013567;28;20420;-85
2022/01/08 02:42:00;;;;;;;4.37;2.50;;;3.10;99.90;;;;;;5013669;28;20508;-86
2022/01/08 02:44:27;;;;;;;6.67;3.50;;;3.10;99.90;;;;;;5014875;28;20420;-85
2022/01/08 02:46:52;;;;;;;5.80;3.00;;;3.10;99.90;;;;;;5013142;28;20950;-85
2022/01/08 02:49:21;;;;;;;5.40;3.37;;;3.00;99.90;;;;;;5013361;28;20431;-85
2022/01/08 02:51:47;;;;;;;5.00;3.40;;;2.90;99.90;;;;;;5013224;28;20427;-85
2022/01/08 02:54:13;;;;;;;5.97;3.10;;;2.90;99.90;;;;;;5013293;28;20411;-85
2022/01/08 02:57:04;;;;;;;;;;;;;;;;;;;;;
2022/01/08 02:59:47;;;;;;;5.53;3.50;;;2.90;99.90;;;;;;5016454;28;20207;-80
2022/01/08 03:03:01;;;;;;;3.97;2.73;;;2.90;99.90;;;;;;5011326;28;20472;-80
2022/01/08 03:05:29;;;;;;;6.93;2.43;;;2.90;99.90;;;;;;4996275;28;20486;-81
2022/01/08 03:07:57;;;;;;;9.80;3.30;;;2.80;99.90;;;;;;4994703;28;20981;-81
2022/01/08 03:10:25;;;;;;;7.60;2.93;;;2.80;99.90;;;;;;4996317;28;20413;-82
2022/01/08 03:12:54;;;;;;;4.60;2.70;;;2.80;99.90;;;;;;4996089;28;20456;-80
2022/01/08 03:15:21;;;;;;;5.20;3.00;;;2.80;99.90;;;;;;5014191;28;20501;-80
2022/01/08 03:17:55;;;;;;;5.87;2.90;;;2.70;99.90;;;;;;5014798;28;20798;-80
2022/01/08 03:20:47;;;;;;;5.40;3.17;;;2.70;99.90;;;;;;5014049;28;20914;-80
2022/01/08 03:26:23;;;;;;;5.70;2.90;;;2.70;99.90;;;;;;5015210;28;20450;-81
2022/01/08 03:28:52;;;;;;;7.03;3.67;;;2.60;99.90;;;;;;5013948;28;20435;-80
2022/01/08 03:31:18;;;;;;;7.40;4.17;;;2.50;99.90;;;;;;5015482;28;20806;-80
2022/01/08 03:33:56;;;;;;;10.93;4.00;;;2.50;99.90;;;;;;5015505;28;20462;-81
2022/01/08 03:36:36;;;;;;;4.80;3.40;;;2.50;99.90;;;;;;5015035;28;20496;-81
2022/01/08 03:39:36;;;;;;;7.20;3.73;;;2.40;99.90;;;;;;5015966;28;20418;-80
2022/01/08 03:42:37;;;;;;;11.87;4.67;;;2.40;99.90;;;;;;5004373;28;20445;-81
2022/01/08 03:45:06;;;;;;;8.83;5.40;;;2.30;99.90;;;;;;5015315;28;20405;-80
2022/01/08 03:50:17;;;;;;;13.90;7.10;;;2.40;99.90;;;;;;5016652;28;20759;-81
2022/01/08 03:52:46;;;;;;;9.37;7.03;;;2.40;99.90;;;;;;5016265;28;20548;-81
2022/01/08 03:55:17;;;;;;;10.40;6.70;;;2.40;99.90;;;;;;5015886;28;20176;-80
2022/01/08 03:57:52;;;;;;;13.87;8.47;;;2.30;99.90;;;;;;5012994;28;20435;-81
2022/01/08 04:00:35;;;;;;;15.37;9.07;;;2.40;99.90;;;;;;5014133;28;20810;-81
2022/01/08 04:03:01;;;;;;;13.07;8.40;;;2.40;99.90;;;;;;5029992;28;20450;-80
2022/01/08 04:05:48;;;;;;;13.50;8.27;;;2.30;99.90;;;;;;5015351;28;20538;-81
2022/01/08 04:08:27;;;;;;;13.67;7.00;;;2.30;99.90;;;;;;5012853;28;20272;-81
2022/01/08 04:11:03;;;;;;;11.80;6.87;;;2.30;99.90;;;;;;5015268;28;20413;-80
2022/01/08 04:13:40;;;;;;;16.13;8.40;;;2.40;99.90;;;;;;5030458;28;20461;-82
2022/01/08 04:16:22;;;;;;;16.43;9.80;;;2.30;99.90;;;;;;5029418;28;20459;-81
2022/01/08 04:19:01;;;;;;;16.30;10.27;;;2.20;99.90;;;;;;5014887;28;20419;-81
2022/01/08 04:24:18;;;;;;;15.30;8.93;;;2.30;99.90;;;;;;5014506;28;20412;-81
2022/01/08 04:26:54;;;;;;;15.93;8.70;;;2.30;99.90;;;;;;5029291;28;20447;-79
2022/01/08 04:29:22;;;;;;;14.10;8.27;;;2.30;99.90;;;;;;5014951;28;20460;-81
2022/01/08 04:32:24;;;;;;;19.70;8.50;;;2.30;99.90;;;;;;5013002;28;20430;-81
2022/01/08 04:35:16;;;;;;;13.60;7.30;;;2.30;99.90;;;;;;4972832;28;20421;-80
2022/01/08 04:38:08;;;;;;;9.60;6.90;;;2.30;99.90;;;;;;4959848;28;20503;-80
2022/01/08 04:40:40;;;;;;;11.80;7.70;;;2.30;99.90;;;;;;4956216;28;20430;-80
2022/01/08 04:43:30;;;;;;;15.33;8.73;;;2.30;99.90;;;;;;4956894;28;20474;-81
2022/01/08 04:46:00;;;;;;;12.73;6.97;;;2.30;99.90;;;;;;4956549;28;20468;-81
2022/01/08 04:49:33;;;;;;;21.97;9.17;;;2.20;99.90;;;;;;4955921;28;20946;-80
2022/01/08 04:52:00;;;;;;;26.00;8.47;;;2.20;99.90;;;;;;4837417;29;20474;-80
2022/01/08 04:55:16;;;;;;;17.73;10.63;;;2.30;99.90;;;;;;4880911;29;20436;-81
2022/01/08 05:08:25;;;;;;;21.47;11.13;;;2.30;99.90;;;;;;5013905;28;20882;-80
2022/01/08 05:14:54;;;;;;;;;;;;;;;;;;;;;
2022/01/08 05:24:11;;;;;;;17.23;10.53;;;2.20;99.90;;;;;;4911273;29;20433;-80
2022/01/08 05:33:28;;;;;;;;;;;;;;;;;;;;;
2022/01/08 05:36:27;;;;;;;17.57;10.90;;;2.20;99.90;;;;;;5035192;28;20444;-80
2022/01/08 05:46:32;;;;;;;15.57;9.97;;;2.20;99.90;;;;;;5036977;28;20441;-81
2022/01/08 05:50:06;;;;;;;;;;;;;;;;;;;;;
2022/01/08 05:53:06;;;;;;;16.97;9.53;;;2.20;99.90;;;;;;4934113;29;20476;-80
2022/01/08 05:59:21;;;;;;;22.53;11.03;;;2.20;99.90;;;;;;4958543;29;20390;-80
2022/01/08 06:08:43;;;;;;;;;;;;;;;;;;;;;
2022/01/08 06:11:14;;;;;;;13.83;8.83;;;2.10;99.90;;;;;;4957889;29;20402;-81
2022/01/08 06:13:40;;;;;;;18.50;9.77;;;2.10;99.90;;;;;;5023075;28;20476;-80
2022/01/08 06:16:41;;;;;;;13.40;8.60;;;2.10;99.90;;;;;;5038141;28;20804;-80
2022/01/08 06:22:46;;;;;;;14.23;8.20;;;2.10;99.90;;;;;;5036604;28;20798;-80
2022/01/08 06:37:54;;;;;;;16.07;10.30;;;2.00;99.90;;;;;;4977965;28;20423;-82
2022/01/08 06:41:02;;;;;;;15.10;9.90;;;2.10;99.90;;;;;;4978474;28;20424;-82
2022/01/08 06:50:45;;;;;;;14.20;9.10;;;2.10;99.90;;;;;;5019357;28;20414;-82
2022/01/08 06:53:36;;;;;;;16.10;9.93;;;2.20;99.90;;;;;;5019349;28;20521;-82
2022/01/08 06:56:39;;;;;;;18.30;10.70;;;2.10;99.90;;;;;;5019069;28;20463;-82
2022/01/08 07:00:10;;;;;;;;;;;;;;;;;;;;;
2022/01/08 07:02:36;;;;;;;19.53;8.70;;;2.00;99.90;;;;;;5020357;28;20502;-82
2022/01/08 07:05:01;;;;;;;17.57;9.57;;;2.00;99.90;;;;;;5019766;28;20451;-82
2022/01/08 07:07:27;;;;;;;14.20;9.10;;;2.00;99.90;;;;;;5019294;28;20671;-81
2022/01/08 07:09:53;;;;;;;15.03;8.77;;;2.00;99.90;;;;;;5019831;28;20180;-82
2022/01/08 07:12:18;;;;;;;17.67;8.93;;;2.10;99.90;;;;;;5019296;28;20314;-82
2022/01/08 07:14:44;;;;;;;16.77;10.30;;;2.10;99.90;;;;;;5001819;28;20562;-83
2022/01/08 07:17:09;;;;;;;18.30;10.33;;;2.10;99.90;;;;;;5018674;28;20200;-82
2022/01/08 07:19:35;;;;;;;12.90;8.30;;;2.10;99.90;;;;;;5002138;28;20197;-82
2022/01/08 07:22:01;;;;;;;15.67;10.03;;;2.10;99.90;;;;;;5019743;28;20185;-81
2022/01/08 07:24:26;;;;;;;19.87;8.80;;;2.20;99.90;;;;;;5024325;28;20173;-82
2022/01/08 07:26:52;;;;;;;14.50;9.60;;;2.20;99.90;;;;;;5020403;28;20225;-82
2022/01/08 07:29:17;;;;;;;16.80;10.00;;;2.30;99.90;;;;;;5002867;28;20683;-81
2022/01/08 07:31:43;;;;;;;16.27;9.87;;;2.30;99.90;;;;;;5019699;28;20567;-81
2022/01/08 07:34:08;;;;;;;13.07;9.27;;;2.30;99.90;;;;;;5002323;28;20250;-82
2022/01/08 07:36:34;;;;;;;17.20;9.80;;;2.40;99.90;;;;;;5002043;28;20211;-82
2022/01/08 07:38:59;;;;;;;13.80;9.00;;;2.40;99.90;;;;;;5018147;28;20536;-82
2022/01/08 07:41:25;;;;;;;14.47;9.10;;;2.40;99.90;;;;;;5018852;28;20643;-82
2022/01/08 07:43:51;;;;;;;17.03;10.50;;;2.50;99.90;;;;;;5020032;28;20608;-81
2022/01/08 07:46:16;;;;;;;15.87;8.63;;;2.50;99.90;;;;;;5018784;28;20204;-81
2022/01/08 07:48:43;;;;;;;16.13;9.30;;;2.50;99.90;;;;;;5000264;28;20278;-81
2022/01/08 07:51:09;;;;;;;14.80;9.60;;;2.60;99.90;;;;;;5018471;28;20625;-81
2022/01/08 07:53:35;;;;;;;17.47;9.63;;;2.60;99.90;;;;;;5000574;28;20463;-81
2022/01/08 07:56:00;;;;;;;15.70;9.73;;;2.60;99.90;;;;;;5000513;28;20285;-81
2022/01/08 07:58:26;;;;;;;21.60;10.77;;;2.60;99.90;;;;;;5017926;28;20419;-82
2022/01/08 08:00:53;;;;;;;19.20;10.60;;;2.60;99.90;;;;;;5017466;28;20180;-81
2022/01/08 08:03:19;;;;;;;17.33;10.60;;;2.60;99.90;;;;;;5018516;28;20728;-81
2022/01/08 08:05:45;;;;;;;24.10;12.13;;;2.70;99.90;;;;;;5017869;28;20444;-81
2022/01/08 08:08:21;;;;;;;17.07;9.83;;;2.80;99.90;;;;;;5017254;28;20423;-82
2022/01/08 08:10:50;;;;;;;17.80;10.97;;;2.90;99.90;;;;;;4999513;28;20437;-81
2022/01/08 08:13:16;;;;;;;22.40;10.33;;;3.00;99.90;;;;;;5017207;28;20963;-81
2022/01/08 08:15:42;;;;;;;19.30;10.00;;;3.10;99.90;;;;;;5016861;28;20443;-81
2022/01/08 08:18:08;;;;;;;16.90;9.77;;;3.20;99.90;;;;;;5016829;28;20454;-80
2022/01/08 08:20:33;;;;;;;15.70;9.87;;;3.30;99.90;;;;;;4999295;28;20196;-80
2022/01/08 08:22:59;;;;;;;13.97;9.53;;;3.40;99.90;;;;;;5016749;28;20190;-82
2022/01/08 08:25:25;;;;;;;18.33;10.13;;;3.40;99.90;;;;;;5017771;28;20182;-82
2022/01/08 08:27:50;;;;;;;15.53;10.00;;;3.40;99.90;;;;;;5016589;28;20259;-81
2022/01/08 08:30:16;;;;;;;14.97;8.60;;;3.50;99.90;;;;;;4999166;28;20201;-81
2022/01/08 08:32:42;;;;;;;17.70;9.43;;;3.50;99.90;;;;;;5016204;28;20304;-82
2022/01/08 08:35:09;;;;;;;26.27;11.97;;;3.60;99.90;;;;;;5009517;28;20440;-82
2022/01/08 08:37:36;;;;;;;18.87;10.67;;;3.60;99.90;;;;;;5014938;28;20416;-82
2022/01/08 08:40:03;;;;;;;19.23;10.30;;;3.80;99.90;;;;;;5018051;28;20420;-81
2022/01/08 08:42:29;;;;;;;15.23;9.47;;;3.90;99.90;;;;;;5015391;28;20423;-82
2022/01/08 08:44:54;;;;;;;20.63;11.37;;;4.00;99.90;;;;;;5014536;28;20483;-81
2022/01/08 08:47:20;;;;;;;17.33;11.60;;;4.00;99.90;;;;;;5014767;28;20236;-81
2022/01/08 08:49:45;;;;;;;14.93;10.90;;;4.20;99.90;;;;;;4997136;28;20186;-82
2022/01/08 08:52:11;;;;;;;15.70;9.83;;;4.30;99.90;;;;;;5013249;28;20218;-81
2022/01/08 08:54:40;;;;;;;18.07;8.90;;;4.50;99.90;;;;;;5014718;28;20196;-79
2022/01/08 08:57:05;;;;;;;17.97;9.37;;;4.50;99.90;;;;;;5013902;28;20528;-81
2022/01/08 08:59:32;;;;;;;19.00;9.13;;;4.50;99.90;;;;;;5019539;23;20487;-80
2022/01/08 09:01:57;;;;;;;13.90;8.43;;;4.50;99.90;;;;;;5027783;28;20298;-79
2022/01/08 09:04:23;;;;;;;20.00;9.80;;;4.50;99.90;;;;;;5030658;28;20469;-79
2022/01/08 09:06:49;;;;;;;20.20;9.70;;;4.50;99.90;;;;;;5009188;28;20182;-78
2022/01/08 09:09:15;;;;;;;15.03;9.37;;;4.60;99.90;;;;;;5010476;28;20438;-79
2022/01/08 09:11:42;;;;;;;15.87;9.10;;;4.60;99.90;;;;;;5015378;28;20460;-79
2022/01/08 09:14:08;;;;;;;16.00;8.50;;;4.50;99.90;;;;;;5015462;28;20265;-77
2022/01/08 09:16:34;;;;;;;12.20;7.87;;;4.50;99.90;;;;;;5015703;28;20836;-78
2022/01/08 09:19:01;;;;;;;12.30;7.67;;;4.40;99.90;;;;;;5009189;28;20450;-78
2022/01/08 09:21:27;;;;;;;15.13;7.73;;;4.40;99.90;;;;;;5021981;28;20956;-78
2022/01/08 09:23:53;;;;;;;16.57;7.40;;;4.20;99.90;;;;;;5017186;28;20458;-78
2022/01/08 09:26:19;;;;;;;15.70;8.30;;;4.30;99.90;;;;;;5013732;28;20826;-78
2022/01/08 09:28:46;;;;;;;11.27;7.47;;;4.30;99.90;;;;;;5008667;28;20498;-77
2022/01/08 09:31:12;;;;;;;15.67;7.97;;;4.40;99.90;;;;;;5016221;28;20931;-78
2022/01/08 09:33:38;;;;;;;14.63;7.93;;;4.50;99.90;;;;;;5031589;28;20865;-78
2022/01/08 09:36:06;;;;;;;14.10;8.00;;;4.60;99.90;;;;;;5031753;28;20789;-77
2022/01/08 09:38:32;;;;;;;14.10;8.40;;;4.70;99.90;;;;;;5015746;28;20418;-79
2022/01/08 09:40:58;;;;;;;19.33;7.87;;;4.80;99.90;;;;;;5016059;28;20510;-78
2022/01/08 09:43:24;;;;;;;16.80;7.97;;;5.00;99.90;;;;;;5016662;28;20476;-79
2022/01/08 09:45:49;;;;;;;13.23;7.63;;;5.10;99.90;;;;;;5016512;28;20991;-79
2022/01/08 09:48:16;;;;;;;12.83;7.00;;;5.10;99.90;;;;;;5016800;28;20422;-78
2022/01/08 09:50:43;;;;;;;13.50;6.27;;;5.20;99.90;;;;;;5016074;28;20186;-77
2022/01/08 09:53:09;;;;;;;11.37;6.23;;;5.10;99.90;;;;;;5017089;28;20468;-78
2022/01/08 09:55:35;;;;;;;13.30;7.00;;;5.10;99.90;;;;;;5018307;28;20422;-78
2022/01/08 09:58:01;;;;;;;11.87;7.00;;;5.00;99.90;;;;;;5017471;28;20427;-79
2022/01/08 10:00:30;;;;;;;17.03;6.90;;;5.10;99.90;;;;;;5015976;28;20206;-78
2022/01/08 10:03:33;;;;;;;10.80;6.33;;;5.20;99.90;;;;;;5018251;28;20455;-79
2022/01/08 10:06:00;;;;;;;12.50;7.00;;;5.20;99.90;;;;;;5012515;28;20447;-79
2022/01/08 10:08:31;;;;;;;10.90;6.47;;;5.20;99.90;;;;;;5015543;28;20428;-78
2022/01/08 10:10:59;;;;;;;14.93;6.90;;;5.20;99.90;;;;;;5017436;28;20429;-79
2022/01/08 10:13:28;;;;;;;15.03;7.00;;;5.30;99.90;;;;;;5017845;28;20518;-79
2022/01/08 10:18:42;;;;;;;15.10;6.17;;;5.40;99.90;;;;;;5018854;28;20445;-79
2022/01/08 10:21:23;;;;;;;10.77;5.70;;;5.40;99.90;;;;;;5017226;28;20803;-78
2022/01/08 10:23:57;;;;;;;9.00;5.97;;;5.40;99.90;;;;;;5017431;28;20424;-79
2022/01/08 10:26:30;;;;;;;13.17;5.30;;;5.40;99.90;;;;;;5018622;28;20419;-78
2022/01/08 10:28:59;;;;;;;10.37;5.10;;;5.40;99.90;;;;;;5018018;28;20420;-78
2022/01/08 10:31:26;;;;;;;7.17;5.13;;;5.40;99.90;;;;;;5017228;28;21013;-79
2022/01/08 10:33:54;;;;;;;8.47;3.93;;;5.50;99.90;;;;;;5016845;28;20498;-78
2022/01/08 10:36:33;;;;;;;6.07;3.83;;;5.40;99.90;;;;;;5017203;28;20810;-78
2022/01/08 10:39:01;;;;;;;6.90;4.33;;;5.40;99.90;;;;;;5017486;28;20423;-79
2022/01/08 10:41:30;;;;;;;6.10;3.90;;;5.30;99.90;;;;;;5017376;28;20423;-79
2022/01/08 10:44:15;;;;;;;7.90;3.50;;;5.30;99.90;;;;;;5017820;28;20506;-78
2022/01/08 10:47:05;;;;;;;8.03;3.40;;;5.30;99.90;;;;;;5017064;28;20438;-80
2022/01/08 10:49:33;;;;;;;6.23;4.33;;;5.50;99.90;;;;;;5017432;28;20426;-80
2022/01/08 10:52:16;;;;;;;6.50;3.43;;;5.60;99.90;;;;;;5017704;28;20457;-79
2022/01/08 10:54:45;;;;;;;6.40;3.47;;;5.80;99.90;;;;;;5017907;28;20577;-80
2022/01/08 10:57:14;;;;;;;6.63;4.00;;;6.10;99.90;;;;;;5017590;28;20420;-79
2022/01/08 10:59:41;;;;;;;4.93;3.27;;;6.40;99.90;;;;;;5017340;28;20431;-79
2022/01/08 11:02:10;;;;;;;6.00;3.40;;;6.60;99.90;;;;;;5017738;28;20527;-79
2022/01/08 11:04:40;;;;;;;6.73;3.63;;;6.80;99.90;;;;;;5017274;28;20821;-79
2022/01/08 11:07:16;;;;;;;5.87;3.07;;;6.90;99.90;;;;;;5017533;28;20422;-79
2022/01/08 11:09:45;;;;;;;8.40;4.40;;;6.90;99.90;;;;;;5017367;28;20459;-79
2022/01/08 11:12:16;;;;;;;5.83;3.30;;;6.80;99.90;;;;;;5017272;28;20446;-79
2022/01/08 11:17:29;;;;;;;7.93;3.43;;;6.60;99.90;;;;;;5018014;28;20411;-79
2022/01/08 11:20:02;;;;;;;6.63;4.00;;;6.50;99.90;;;;;;5016710;28;20424;-79
2022/01/08 11:22:33;;;;;;;5.50;3.53;;;6.60;99.90;;;;;;5016929;28;20440;-79
2022/01/08 11:25:01;;;;;;;5.03;2.70;;;6.60;99.90;;;;;;5016739;28;20416;-79
2022/01/08 11:27:57;;;;;;;5.43;3.27;;;6.40;99.90;;;;;;5016577;28;20844;-79
2022/01/08 11:30:26;;;;;;;6.47;2.87;;;6.40;99.90;;;;;;5017512;28;20431;-79
2022/01/08 11:32:59;;;;;;;5.47;2.83;;;6.50;99.90;;;;;;5011783;28;20467;-79
2022/01/08 11:35:31;;;;;;;5.07;3.13;;;6.60;99.90;;;;;;5013531;28;20441;-80
2022/01/08 11:38:01;;;;;;;5.50;2.90;;;6.50;99.90;;;;;;4996530;28;20435;-79
2022/01/08 11:40:27;;;;;;;6.67;2.77;;;6.50;99.90;;;;;;5009842;28;20437;-79
2022/01/08 11:42:54;;;;;;;5.40;3.07;;;6.50;99.90;;;;;;5017078;28;20444;-79
2022/01/08 11:45:30;;;;;;;5.27;2.93;;;6.30;99.90;;;;;;5015624;28;20196;-79
2022/01/08 11:47:58;;;;;;;6.07;3.40;;;6.20;99.90;;;;;;5016366;28;20431;-79
2022/01/08 11:50:29;;;;;;;12.67;3.20;;;6.20;99.90;;;;;;5015342;28;20802;-79
2022/01/08 11:53:23;;;;;;;5.47;2.73;;;6.20;99.90;;;;;;5016068;28;20471;-80
2022/01/08 11:55:50;;;;;;;8.87;3.37;;;6.20;99.90;;;;;;4998348;28;20441;-78
2022/01/08 11:58:26;;;;;;;7.63;3.60;;;6.20;99.90;;;;;;4995016;28;20429;-79
2022/01/08 12:00:55;;;;;;;7.73;3.87;;;6.20;99.90;;;;;;5012555;28;20436;-79
2022/01/08 12:03:23;;;;;;;5.23;2.80;;;6.30;99.90;;;;;;4995281;28;20525;-79
2022/01/08 12:05:49;;;;;;;8.03;3.20;;;6.30;99.90;;;;;;5011183;28;20421;-79
2022/01/08 12:08:17;;;;;;;7.57;4.20;;;6.30;99.90;;;;;;4996963;28;20513;-79
2022/01/08 12:10:59;;;;;;;5.20;2.83;;;6.40;99.90;;;;;;5014601;28;20424;-80
2022/01/08 12:13:46;;;;;;;5.10;3.13;;;6.50;99.90;;;;;;5013542;28;20507;-79
2022/01/08 12:16:32;;;;;;;8.10;3.20;;;6.40;99.90;;;;;;5011121;28;20421;-80
2022/01/08 12:18:59;;;;;;;6.07;3.27;;;6.30;99.90;;;;;;5013114;28;20439;-80
2022/01/08 12:21:39;;;;;;;4.90;2.77;;;6.50;99.90;;;;;;5010832;28;20417;-81
2022/01/08 12:24:26;;;;;;;6.37;2.97;;;6.50;99.90;;;;;;5010917;28;20448;-80
2022/01/08 12:26:57;;;;;;;5.03;3.73;;;6.60;99.90;;;;;;5009400;28;20439;-81
2022/01/08 12:29:40;;;;;;;4.70;2.90;;;6.70;99.90;;;;;;5014751;28;20447;-80
2022/01/08 12:32:32;;;;;;;7.13;3.00;;;6.90;99.90;;;;;;5013376;28;20448;-80
2022/01/08 12:35:36;;;;;;;5.00;2.57;;;7.40;99.90;;;;;;5010685;28;20798;-81
2022/01/08 12:38:05;;;;;;;4.60;3.07;;;7.20;99.90;;;;;;4996426;28;20482;-80
2022/01/08 12:40:42;;;;;;;5.23;3.70;;;6.90;99.90;;;;;;5009762;28;20421;-81
2022/01/08 12:43:34;;;;;;;4.37;2.83;;;6.70;99.90;;;;;;5021482;28;20449;-81
2022/01/08 12:46:26;;;;;;;8.40;2.97;;;6.50;99.90;;;;;;4993442;28;20782;-80
2022/01/08 12:49:08;;;;;;;4.50;2.67;;;6.30;99.90;;;;;;4994522;28;20424;-80
2022/01/08 12:51:49;;;;;;;3.67;2.17;;;6.20;99.90;;;;;;4993592;28;20583;-80
2022/01/08 12:54:17;;;;;;;9.70;2.90;;;6.10;99.90;;;;;;4994605;28;20524;-80
2022/01/08 12:56:55;;;;;;;4.93;3.80;;;6.00;99.90;;;;;;4993539;28;20821;-80
2022/01/08 12:59:29;;;;;;;4.80;2.70;;;5.90;99.90;;;;;;4993840;28;20431;-80
2022/01/08 13:01:55;;;;;;;5.83;3.00;;;5.80;99.90;;;;;;4995049;28;20440;-80
2022/01/08 13:04:22;;;;;;;5.17;3.00;;;5.80;99.90;;;;;;4993618;28;20417;-80
2022/01/08 13:06:48;;;;;;;6.90;3.77;;;5.70;99.90;;;;;;4993565;28;20808;-80
2022/01/08 13:09:15;;;;;;;6.80;3.17;;;5.70;99.90;;;;;;5027542;28;20424;-79
2022/01/08 13:11:43;;;;;;;5.17;2.80;;;5.60;99.90;;;;;;5011953;28;20969;-80
2022/01/08 13:14:14;;;;;;;5.30;2.53;;;5.60;99.90;;;;;;5031849;28;20521;-79
2022/01/08 13:16:44;;;;;;;5.17;3.30;;;5.60;99.90;;;;;;5030006;28;20428;-79
2022/01/08 13:19:14;;;;;;;6.67;3.30;;;5.60;99.90;;;;;;5014851;28;20419;-80
2022/01/08 13:21:45;;;;;;;4.50;2.90;;;5.50;99.90;;;;;;5013245;28;20831;-79
2022/01/08 13:24:15;;;;;;;5.93;2.67;;;5.50;99.90;;;;;;5030681;28;20435;-81
2022/01/08 13:26:50;;;;;;;6.30;3.20;;;5.50;99.90;;;;;;5014643;28;20917;-79
2022/01/08 13:29:22;;;;;;;7.53;3.83;;;5.40;99.90;;;;;;5030801;28;20425;-80
2022/01/08 13:32:00;;;;;;;10.43;3.70;;;5.40;99.90;;;;;;5026854;28;20533;-81
2022/01/08 13:34:34;;;;;;;6.73;2.90;;;5.30;99.90;;;;;;5027483;28;20501;-81
2022/01/08 13:37:14;;;;;;;6.43;3.40;;;5.30;99.90;;;;;;5027259;28;20413;-82
2022/01/08 13:39:46;;;;;;;6.30;4.30;;;5.40;99.90;;;;;;5010801;28;20788;-82
2022/01/08 13:42:25;;;;;;;5.83;3.47;;;5.40;99.90;;;;;;5028637;28;20455;-81
2022/01/08 13:44:54;;;;;;;6.07;3.80;;;5.40;99.90;;;;;;5031690;28;20451;-81
2022/01/08 13:47:26;;;;;;;8.87;3.30;;;5.30;99.90;;;;;;5038536;28;20922;-80
2022/01/08 13:49:54;;;;;;;7.67;3.33;;;5.20;99.90;;;;;;5037558;28;20447;-81
2022/01/08 13:52:28;;;;;;;5.57;2.83;;;5.10;99.90;;;;;;5037327;28;20502;-80
2022/01/08 13:55:47;;;;;;;5.30;3.20;;;5.00;99.90;;;;;;5036482;28;20414;-81
2022/01/08 13:58:31;;;;;;;7.90;2.83;;;5.00;99.90;;;;;;4994739;28;20434;-81
2022/01/08 14:01:10;;;;;;;8.30;2.50;;;5.00;99.90;;;;;;5037299;28;20449;-81
2022/01/08 14:03:41;;;;;;;7.60;3.00;;;4.90;99.90;;;;;;5015580;28;20430;-81
2022/01/08 14:06:07;;;;;;;4.80;2.23;;;4.80;99.90;;;;;;5021458;28;20428;-82
2022/01/08 14:08:35;;;;;;;6.43;2.30;;;4.60;99.90;;;;;;5022625;28;20428;-80
2022/01/08 14:11:03;;;;;;;4.90;2.83;;;4.60;99.90;;;;;;5020657;28;20472;-81
2022/01/08 14:13:44;;;;;;;5.27;3.10;;;4.50;99.90;;;;;;5018652;28;20938;-79
2022/01/08 14:16:11;;;;;;;3.23;2.10;;;4.50;99.90;;;;;;5019580;28;20516;-81
2022/01/08 14:18:38;;;;;;;3.70;2.20;;;4.40;99.90;;;;;;5020081;28;20422;-80
2022/01/08 14:21:22;;;;;;;4.30;2.37;;;4.30;99.90;;;;;;5020798;28;20916;-80
2022/01/08 14:23:48;;;;;;;3.90;2.63;;;4.20;99.90;;;;;;5020804;28;20435;-79
2022/01/08 14:26:17;;;;;;;4.07;2.50;;;4.10;99.90;;;;;;5021504;28;21014;-79
2022/01/08 14:28:58;;;;;;;4.33;2.73;;;4.00;99.90;;;;;;5020846;28;20425;-79
2022/01/08 14:31:24;;;;;;;5.77;2.40;;;3.80;99.90;;;;;;5022640;28;20421;-80
2022/01/08 14:34:00;;;;;;;4.03;2.40;;;3.80;99.90;;;;;;5022983;28;20464;-79
2022/01/08 14:36:38;;;;;;;5.50;3.17;;;3.60;99.90;;;;;;5022130;28;20248;-79
2022/01/08 14:39:04;;;;;;;3.40;2.27;;;3.60;99.90;;;;;;5021122;28;20934;-78
2022/01/08 14:41:40;;;;;;;6.57;2.80;;;3.50;99.90;;;;;;5022863;28;20440;-78
2022/01/08 14:44:06;;;;;;;3.63;2.47;;;3.50;99.90;;;;;;5023051;28;20427;-79
2022/01/08 14:46:32;;;;;;;4.87;2.97;;;3.50;99.90;;;;;;5022326;28;20428;-79
2022/01/08 14:48:59;;;;;;;5.07;2.80;;;3.50;99.90;;;;;;5022135;28;20424;-79
2022/01/08 14:51:29;;;;;;;5.10;3.17;;;3.40;99.90;;;;;;5021458;28;20420;-79
2022/01/08 14:54:04;;;;;;;6.23;3.20;;;3.40;99.90;;;;;;5021074;28;20468;-79
2022/01/08 14:56:30;;;;;;;4.70;2.70;;;3.30;99.90;;;;;;5020227;28;20439;-79
2022/01/08 14:58:56;;;;;;;3.30;2.17;;;3.30;99.90;;;;;;5020084;28;20963;-79
2022/01/08 15:01:22;;;;;;;3.70;2.30;;;3.30;99.90;;;;;;5019875;28;20193;-80
2022/01/08 15:03:48;;;;;;;4.77;2.90;;;3.30;99.90;;;;;;5020403;28;20551;-79
2022/01/08 15:06:14;;;;;;;6.50;3.20;;;3.30;99.90;;;;;;5020962;28;20272;-80